Time;durP1;ratioP1;P1;durP2;ratioP2;P2;SDS_P1;SDS_P2;PMS_P1;PMS_P2;Temp;Humidity;BMP_temperature;BMP_pressure;BME280_temperature;BME280_humidity;BME280_pressure;Samples;Min_cycle;Max_cycle;Signal;HPM_P1;HPM_P2
2022/08/06 00:00:30;;;;;;;7.78;2.28;;;13.90;99.90;;;;;;5041889;28;20155;-77
2022/08/06 00:02:55;;;;;;;3.63;1.98;;;13.80;99.90;;;;;;5044778;28;20037;-77
2022/08/06 00:05:21;;;;;;;5.25;2.20;;;13.80;99.90;;;;;;5050123;28;20037;-78
2022/08/06 00:07:47;;;;;;;3.63;2.05;;;13.80;99.90;;;;;;5040310;28;20033;-77
2022/08/06 00:10:14;;;;;;;4.20;2.60;;;13.80;99.90;;;;;;5039756;28;20086;-77
2022/08/06 00:12:40;;;;;;;5.55;2.75;;;13.80;99.90;;;;;;5043739;28;20033;-78
2022/08/06 00:15:07;;;;;;;5.78;2.60;;;13.70;99.90;;;;;;5043601;28;20418;-77
2022/08/06 00:17:33;;;;;;;4.35;2.30;;;13.60;99.90;;;;;;5038717;28;20521;-79
2022/08/06 00:20:00;;;;;;;5.47;2.33;;;13.60;99.90;;;;;;5040452;28;20042;-78
2022/08/06 00:22:25;;;;;;;4.38;2.20;;;13.60;99.90;;;;;;5036035;28;20496;-79
2022/08/06 00:24:51;;;;;;;6.22;2.63;;;13.60;99.90;;;;;;5032328;28;20049;-78
2022/08/06 00:27:16;;;;;;;3.58;2.30;;;13.50;99.90;;;;;;5039223;28;20041;-78
2022/08/06 00:29:42;;;;;;;3.47;2.05;;;13.50;99.90;;;;;;5039151;28;20042;-76
2022/08/06 00:32:07;;;;;;;5.07;2.30;;;13.40;99.90;;;;;;5037178;28;20033;-77
2022/08/06 00:34:33;;;;;;;3.55;2.20;;;13.40;99.90;;;;;;5035360;28;20514;-78
2022/08/06 00:36:58;;;;;;;4.15;2.20;;;13.40;99.90;;;;;;5039650;28;20033;-77
2022/08/06 00:39:24;;;;;;;3.83;2.40;;;13.30;99.90;;;;;;5039303;28;20045;-78
2022/08/06 00:41:50;;;;;;;4.30;2.30;;;13.40;99.90;;;;;;5035871;28;20128;-77
2022/08/06 00:44:15;;;;;;;3.60;2.20;;;13.20;99.90;;;;;;5039158;28;20076;-78
2022/08/06 00:46:42;;;;;;;3.53;2.28;;;13.20;99.90;;;;;;5040639;28;20497;-78
2022/08/06 00:49:09;;;;;;;3.75;2.50;;;13.20;99.90;;;;;;5036368;28;20040;-78
2022/08/06 00:51:34;;;;;;;4.80;2.85;;;13.20;99.90;;;;;;5040160;28;20172;-76
2022/08/06 00:54:00;;;;;;;4.70;2.40;;;13.10;99.90;;;;;;5037229;28;20152;-77
2022/08/06 00:56:26;;;;;;;4.38;2.30;;;13.10;99.90;;;;;;5034421;28;20041;-78
2022/08/06 00:58:51;;;;;;;4.75;3.17;;;13.10;99.90;;;;;;5039864;28;20045;-78
2022/08/06 01:01:17;;;;;;;3.80;2.78;;;13.10;99.90;;;;;;5038968;28;20059;-78
2022/08/06 01:03:43;;;;;;;6.75;3.67;;;13.10;99.90;;;;;;5031905;28;20408;-76
2022/08/06 01:06:08;;;;;;;5.90;3.75;;;13.10;99.90;;;;;;5034750;28;20029;-78
2022/08/06 01:08:34;;;;;;;4.95;3.22;;;13.00;99.90;;;;;;5038219;28;20037;-77
2022/08/06 01:11:00;;;;;;;4.82;3.40;;;13.00;99.90;;;;;;5036689;28;20028;-77
2022/08/06 01:13:25;;;;;;;4.45;3.10;;;12.90;99.90;;;;;;5041542;28;20148;-78
2022/08/06 01:16:12;;;;;;;5.15;3.60;;;12.90;99.90;;;;;;5038525;28;20037;-76
2022/08/06 01:18:53;;;;;;;5.93;3.65;;;12.90;99.90;;;;;;5032366;28;20541;-77
2022/08/06 01:21:21;;;;;;;6.53;4.07;;;12.90;99.90;;;;;;5031069;28;20112;-77
2022/08/06 01:23:52;;;;;;;7.88;4.20;;;12.90;99.90;;;;;;5034160;28;20041;-78
2022/08/06 01:26:26;;;;;;;6.10;3.50;;;13.00;99.90;;;;;;5036845;28;20043;-77
2022/08/06 01:29:18;;;;;;;6.07;3.53;;;13.00;99.90;;;;;;5036862;28;20033;-77
2022/08/06 01:31:58;;;;;;;4.90;3.38;;;12.90;99.90;;;;;;5031610;28;20546;-76
2022/08/06 01:34:34;;;;;;;4.97;3.30;;;12.90;99.90;;;;;;5040393;28;20036;-77
2022/08/06 01:37:25;;;;;;;4.40;3.20;;;12.80;99.90;;;;;;5033154;28;20041;-76
2022/08/06 01:39:59;;;;;;;3.92;3.40;;;12.70;99.90;;;;;;5038954;28;20039;-78
2022/08/06 01:42:28;;;;;;;5.47;3.15;;;12.70;99.90;;;;;;5032206;28;20518;-77
2022/08/06 01:44:56;;;;;;;8.32;3.08;;;12.70;99.90;;;;;;5038010;28;20495;-78
2022/08/06 01:47:26;;;;;;;4.43;3.00;;;12.80;99.90;;;;;;5035862;28;20030;-77
2022/08/06 01:49:55;;;;;;;4.07;2.90;;;12.70;99.90;;;;;;5034658;28;20056;-76
2022/08/06 01:52:23;;;;;;;4.07;2.63;;;12.70;99.90;;;;;;5035611;28;20533;-77
2022/08/06 01:54:50;;;;;;;5.35;2.67;;;12.70;99.90;;;;;;5043780;28;20720;-77
2022/08/06 01:57:20;;;;;;;5.30;2.58;;;12.70;99.90;;;;;;5038767;28;20037;-77
2022/08/06 01:59:50;;;;;;;3.13;2.10;;;12.60;99.90;;;;;;5032549;28;20037;-77
2022/08/06 02:02:20;;;;;;;4.28;2.20;;;12.50;99.90;;;;;;5032829;28;20112;-77
2022/08/06 02:04:50;;;;;;;4.43;2.40;;;12.40;99.90;;;;;;5031010;28;20041;-77
2022/08/06 02:07:19;;;;;;;3.20;1.90;;;12.40;99.90;;;;;;5039817;28;20094;-76
2022/08/06 02:09:48;;;;;;;3.17;1.77;;;12.30;99.90;;;;;;5037070;28;20029;-77
2022/08/06 02:12:19;;;;;;;2.72;1.80;;;12.20;99.90;;;;;;5038627;28;20383;-77
2022/08/06 02:14:50;;;;;;;4.43;1.80;;;12.20;99.90;;;;;;5038048;28;20402;-77
2022/08/06 02:17:18;;;;;;;5.05;2.08;;;12.20;99.90;;;;;;5041018;28;20293;-78
2022/08/06 02:19:47;;;;;;;3.22;1.77;;;12.20;99.90;;;;;;5033747;28;20080;-77
2022/08/06 02:22:13;;;;;;;2.88;1.67;;;12.10;99.90;;;;;;5038705;28;20041;-77
2022/08/06 02:24:39;;;;;;;3.65;1.70;;;12.10;99.90;;;;;;5037561;28;20048;-77
2022/08/06 02:27:07;;;;;;;3.53;1.50;;;12.10;99.90;;;;;;5037717;28;20076;-77
2022/08/06 02:29:33;;;;;;;4.45;1.92;;;12.00;99.90;;;;;;5037940;28;20032;-78
2022/08/06 02:31:59;;;;;;;4.55;1.40;;;12.00;99.90;;;;;;5034754;28;20514;-78
2022/08/06 02:34:25;;;;;;;2.63;1.30;;;12.00;99.90;;;;;;5028684;28;20034;-77
2022/08/06 02:36:58;;;;;;;2.05;1.42;;;12.00;99.90;;;;;;5039181;28;20088;-77
2022/08/06 02:39:31;;;;;;;4.28;1.50;;;12.00;99.90;;;;;;5034958;28;20041;-78
2022/08/06 02:42:08;;;;;;;4.22;1.50;;;11.90;99.90;;;;;;5029883;28;20045;-77
2022/08/06 02:44:51;;;;;;;3.42;1.75;;;11.90;99.90;;;;;;5033385;28;20041;-78
2022/08/06 02:47:38;;;;;;;2.08;1.40;;;11.80;99.90;;;;;;5040180;28;20064;-78
2022/08/06 02:50:06;;;;;;;3.25;1.42;;;11.80;99.90;;;;;;5036455;28;20033;-77
2022/08/06 02:52:48;;;;;;;2.83;1.58;;;11.80;99.90;;;;;;5034104;28;20033;-78
2022/08/06 02:55:18;;;;;;;3.17;1.60;;;11.80;99.90;;;;;;5037182;28;20091;-78
2022/08/06 02:57:53;;;;;;;3.88;1.70;;;11.80;99.90;;;;;;5033295;28;20048;-78
2022/08/06 03:00:20;;;;;;;2.20;1.65;;;11.90;99.90;;;;;;5035405;28;20075;-78
2022/08/06 03:02:48;;;;;;;3.50;1.55;;;11.90;99.90;;;;;;5029989;28;20076;-78
2022/08/06 03:05:17;;;;;;;3.13;1.80;;;11.90;99.90;;;;;;5035290;28;20064;-78
2022/08/06 03:07:44;;;;;;;5.35;1.70;;;11.80;99.90;;;;;;5038107;28;20394;-78
2022/08/06 03:10:10;;;;;;;3.53;1.63;;;11.80;99.90;;;;;;5036138;28;20047;-78
2022/08/06 03:12:38;;;;;;;3.80;1.95;;;11.70;99.90;;;;;;5037340;28;20040;-78
2022/08/06 03:15:05;;;;;;;3.10;1.83;;;11.70;99.90;;;;;;5034615;28;20158;-78
2022/08/06 03:17:32;;;;;;;7.13;2.10;;;11.60;99.90;;;;;;5041535;28;20056;-78
2022/08/06 03:20:01;;;;;;;3.88;1.98;;;11.60;99.90;;;;;;5039261;28;20048;-78
2022/08/06 03:22:28;;;;;;;2.60;1.80;;;11.60;99.90;;;;;;5037328;28;20164;-78
2022/08/06 03:24:55;;;;;;;3.70;1.70;;;11.50;99.90;;;;;;5038504;28;20096;-78
2022/08/06 03:27:22;;;;;;;2.78;1.65;;;11.50;99.90;;;;;;5034703;28;20046;-78
2022/08/06 03:29:48;;;;;;;2.42;1.65;;;11.60;99.90;;;;;;5039014;28;20040;-78
2022/08/06 03:32:15;;;;;;;3.65;1.90;;;11.60;99.90;;;;;;5039372;28;20036;-78
2022/08/06 03:34:42;;;;;;;2.38;1.90;;;11.70;99.90;;;;;;5035388;28;20033;-78
2022/08/06 03:37:08;;;;;;;2.88;1.70;;;11.70;99.90;;;;;;5035109;28;20037;-78
2022/08/06 03:39:37;;;;;;;2.33;1.77;;;11.60;99.90;;;;;;5039566;28;20060;-78
2022/08/06 03:42:04;;;;;;;2.67;1.92;;;11.60;99.90;;;;;;5039546;28;20511;-78
2022/08/06 03:44:29;;;;;;;2.38;2.15;;;11.60;99.90;;;;;;5038026;28;20041;-78
2022/08/06 03:47:12;;;;;;;3.72;1.92;;;11.60;99.90;;;;;;5036140;28;20037;-78
2022/08/06 03:49:41;;;;;;;3.03;1.80;;;11.50;99.90;;;;;;5034368;28;20465;-78
2022/08/06 03:52:10;;;;;;;3.65;1.80;;;11.40;99.90;;;;;;5039130;28;20116;-78
2022/08/06 03:54:52;;;;;;;2.50;1.90;;;11.30;99.90;;;;;;5034280;28;20041;-78
2022/08/06 03:57:24;;;;;;;7.65;2.25;;;11.30;99.90;;;;;;5033281;28;20528;-78
2022/08/06 03:59:53;;;;;;;2.95;2.10;;;11.30;99.90;;;;;;5037351;28;20069;-78
2022/08/06 04:02:19;;;;;;;3.78;2.10;;;11.40;99.90;;;;;;5042196;28;20141;-78
2022/08/06 04:04:47;;;;;;;3.17;2.00;;;11.40;99.90;;;;;;5033188;28;20060;-78
2022/08/06 04:07:15;;;;;;;4.72;2.00;;;11.40;99.90;;;;;;5038328;28;20384;-78
2022/08/06 04:09:44;;;;;;;2.95;1.85;;;11.40;99.90;;;;;;5039147;28;20033;-78
2022/08/06 04:12:10;;;;;;;2.70;2.20;;;11.40;99.90;;;;;;5037397;28;20086;-77
2022/08/06 04:14:35;;;;;;;3.90;1.90;;;11.30;99.90;;;;;;5042133;28;20637;-78
2022/08/06 04:17:03;;;;;;;5.20;2.22;;;11.30;99.90;;;;;;5037546;28;20037;-78
2022/08/06 04:19:30;;;;;;;3.10;1.98;;;11.30;99.90;;;;;;5040589;28;20045;-77
2022/08/06 04:21:55;;;;;;;3.15;2.10;;;11.30;99.90;;;;;;5035445;28;20048;-77
2022/08/06 04:24:21;;;;;;;2.80;1.90;;;11.30;99.90;;;;;;5038278;28;20059;-78
2022/08/06 04:26:51;;;;;;;2.70;1.88;;;11.40;99.90;;;;;;5031611;28;20038;-78
2022/08/06 04:29:18;;;;;;;2.72;1.98;;;11.50;99.90;;;;;;5035775;28;20939;-78
2022/08/06 04:31:47;;;;;;;6.22;2.08;;;11.60;99.90;;;;;;5036344;28;20045;-78
2022/08/06 04:34:17;;;;;;;5.07;2.17;;;11.60;99.90;;;;;;5031366;28;20095;-78
2022/08/06 04:36:43;;;;;;;2.38;1.80;;;11.70;99.90;;;;;;5035547;28;20037;-78
2022/08/06 04:39:09;;;;;;;2.88;1.80;;;11.80;99.90;;;;;;5041054;28;20588;-78
2022/08/06 04:41:35;;;;;;;2.67;2.00;;;11.80;99.90;;;;;;5040655;28;20034;-78
2022/08/06 04:44:01;;;;;;;3.33;2.28;;;11.80;99.90;;;;;;5038637;28;20140;-78
2022/08/06 04:46:27;;;;;;;4.00;2.25;;;11.80;99.90;;;;;;5036580;28;20120;-78
2022/08/06 04:48:53;;;;;;;3.33;2.08;;;11.80;99.90;;;;;;5039214;28;20029;-78
2022/08/06 04:51:21;;;;;;;2.38;2.00;;;11.80;99.90;;;;;;5038801;28;20029;-78
2022/08/06 04:53:47;;;;;;;4.78;1.70;;;11.80;99.90;;;;;;5032615;28;20061;-78
2022/08/06 04:56:12;;;;;;;3.08;1.75;;;11.90;99.90;;;;;;5031848;28;21948;-78
2022/08/06 04:58:38;;;;;;;6.57;1.90;;;11.90;99.90;;;;;;5041402;28;20037;-78
2022/08/06 05:01:03;;;;;;;2.80;1.92;;;11.90;99.90;;;;;;5034479;28;20029;-78
2022/08/06 05:03:30;;;;;;;2.42;1.80;;;11.90;99.90;;;;;;5032143;28;20151;-78
2022/08/06 05:06:16;;;;;;;2.97;1.83;;;11.90;99.90;;;;;;5032490;28;20042;-78
2022/08/06 05:08:45;;;;;;;3.30;1.85;;;11.90;99.90;;;;;;5035966;28;20121;-77
2022/08/06 05:11:38;;;;;;;2.40;1.95;;;11.90;99.90;;;;;;5030167;28;20037;-77
2022/08/06 05:14:12;;;;;;;3.77;2.40;;;11.90;99.90;;;;;;5034165;28;20514;-77
2022/08/06 05:16:41;;;;;;;5.03;2.08;;;12.00;99.90;;;;;;5030234;28;20350;-78
2022/08/06 05:19:21;;;;;;;2.63;2.08;;;12.00;99.90;;;;;;5036779;28;20491;-77
2022/08/06 05:21:48;;;;;;;3.33;2.10;;;12.00;99.90;;;;;;5036832;28;20467;-78
2022/08/06 05:24:14;;;;;;;2.40;2.10;;;12.00;99.90;;;;;;5034783;28;20048;-78
2022/08/06 05:26:40;;;;;;;2.85;1.85;;;12.00;99.90;;;;;;5040158;28;20531;-78
2022/08/06 05:29:05;;;;;;;2.10;1.80;;;12.00;99.90;;;;;;5035825;28;20098;-77
2022/08/06 05:31:36;;;;;;;3.33;2.20;;;12.10;99.90;;;;;;5034602;28;20518;-78
2022/08/06 05:34:09;;;;;;;4.57;1.80;;;12.30;99.90;;;;;;5032789;28;20041;-78
2022/08/06 05:36:35;;;;;;;2.93;1.93;;;12.40;99.90;;;;;;5037864;28;20403;-78
2022/08/06 05:39:00;;;;;;;2.83;2.00;;;12.60;99.90;;;;;;5027761;28;20044;-78
2022/08/06 05:41:28;;;;;;;5.95;2.15;;;12.80;99.90;;;;;;5026713;28;20042;-77
2022/08/06 05:43:54;;;;;;;2.30;1.63;;;13.00;99.90;;;;;;5022589;28;20058;-78
2022/08/06 05:46:22;;;;;;;3.00;1.92;;;13.20;99.90;;;;;;5028993;28;20025;-79
2022/08/06 05:49:05;;;;;;;4.45;2.03;;;13.40;99.90;;;;;;5032427;28;20033;-79
2022/08/06 05:51:42;;;;;;;3.95;1.70;;;13.50;99.90;;;;;;5029629;28;20119;-79
2022/08/06 05:54:38;;;;;;;3.88;1.80;;;13.70;99.90;;;;;;5032775;28;20359;-79
2022/08/06 05:57:13;;;;;;;3.03;1.58;;;13.90;99.90;;;;;;5029083;28;20040;-79
2022/08/06 05:59:50;;;;;;;3.67;1.52;;;14.00;99.90;;;;;;5036042;28;21316;-78
2022/08/06 06:02:17;;;;;;;5.93;1.90;;;14.10;99.90;;;;;;5041590;28;20126;-79
2022/08/06 06:04:46;;;;;;;2.67;1.48;;;14.20;99.90;;;;;;5038704;28;20102;-77
2022/08/06 06:07:13;;;;;;;3.83;1.60;;;14.20;99.90;;;;;;5040546;28;20029;-79
2022/08/06 06:09:41;;;;;;;5.97;1.70;;;14.20;99.90;;;;;;5036749;28;20056;-79
2022/08/06 06:12:08;;;;;;;2.00;1.23;;;14.20;99.90;;;;;;5040548;28;20050;-79
2022/08/06 06:14:47;;;;;;;2.60;1.40;;;14.20;99.90;;;;;;5035050;28;20419;-78
2022/08/06 06:17:33;;;;;;;4.40;1.63;;;14.20;99.90;;;;;;5037356;28;20037;-79
2022/08/06 06:20:49;;;;;;;1.38;1.23;;;14.20;99.90;;;;;;5042476;28;20041;-80
2022/08/06 06:23:25;;;;;;;3.15;1.20;;;14.30;99.90;;;;;;5040094;28;20065;-80
2022/08/06 06:25:58;;;;;;;2.22;1.48;;;14.50;99.90;;;;;;5035435;28;20082;-79
2022/08/06 06:28:35;;;;;;;2.47;1.20;;;14.80;99.90;;;;;;5036327;28;20033;-79
2022/08/06 06:31:15;;;;;;;3.47;1.10;;;15.10;99.90;;;;;;5033521;28;20866;-76
2022/08/06 06:34:01;;;;;;;2.92;1.08;;;15.40;99.90;;;;;;5032500;28;20393;-77
2022/08/06 06:36:33;;;;;;;3.53;1.00;;;15.70;99.90;;;;;;5027793;28;20045;-78
2022/08/06 06:39:18;;;;;;;2.67;1.02;;;15.70;99.90;;;;;;5037992;28;20108;-79
2022/08/06 06:41:56;;;;;;;2.70;0.85;;;15.90;99.90;;;;;;5040792;28;20041;-80
2022/08/06 06:44:37;;;;;;;6.40;1.10;;;15.90;99.90;;;;;;5035260;28;20041;-77
2022/08/06 06:47:15;;;;;;;4.35;1.23;;;15.90;99.90;;;;;;5045100;28;20608;-78
2022/08/06 06:49:45;;;;;;;4.85;0.90;;;16.00;99.90;;;;;;5054068;28;20062;-78
2022/08/06 06:52:28;;;;;;;2.15;0.85;;;16.10;99.90;;;;;;5045703;28;20080;-80
2022/08/06 06:55:11;;;;;;;4.90;1.00;;;16.30;99.90;;;;;;5028522;28;20403;-79
2022/08/06 06:57:53;;;;;;;5.40;1.10;;;16.50;99.90;;;;;;5044763;28;20156;-80
2022/08/06 07:00:19;;;;;;;5.55;1.00;;;16.70;99.90;;;;;;5037785;28;20052;-78
2022/08/06 07:02:48;;;;;;;2.45;0.90;;;16.90;99.90;;;;;;5034247;28;20036;-79
2022/08/06 07:05:15;;;;;;;3.05;1.00;;;17.00;99.90;;;;;;5046272;28;20049;-80
2022/08/06 07:07:43;;;;;;;2.75;0.80;;;17.20;99.90;;;;;;5043906;28;20073;-80
2022/08/06 07:10:12;;;;;;;3.58;1.00;;;17.30;99.90;;;;;;5033190;28;20498;-79
2022/08/06 07:12:40;;;;;;;2.28;0.95;;;17.40;99.90;;;;;;5041018;28;20121;-79
2022/08/06 07:15:08;;;;;;;4.18;0.90;;;17.70;99.90;;;;;;5042283;28;20048;-79
2022/08/06 07:17:36;;;;;;;3.10;1.10;;;17.80;99.90;;;;;;5050393;28;20052;-79
2022/08/06 07:20:07;;;;;;;2.03;0.70;;;17.80;99.90;;;;;;5034081;28;20462;-80
2022/08/06 07:22:35;;;;;;;2.42;0.60;;;17.90;99.90;;;;;;5026151;28;20569;-78
2022/08/06 07:25:03;;;;;;;4.22;0.77;;;17.90;99.90;;;;;;5034263;28;20096;-78
2022/08/06 07:27:33;;;;;;;3.72;0.88;;;18.00;99.90;;;;;;5038806;28;20579;-80
2022/08/06 07:30:00;;;;;;;2.25;0.60;;;18.20;99.90;;;;;;5041693;28;20033;-80
2022/08/06 07:32:29;;;;;;;5.22;0.80;;;18.30;99.90;;;;;;5034523;28;20041;-79
2022/08/06 07:34:55;;;;;;;4.95;0.70;;;18.40;99.90;;;;;;5028774;28;20084;-76
2022/08/06 07:37:26;;;;;;;5.35;0.88;;;18.60;99.90;;;;;;5034489;28;20044;-80
2022/08/06 07:39:53;;;;;;;3.67;0.80;;;18.60;99.90;;;;;;5019372;28;20419;-80
2022/08/06 07:42:20;;;;;;;1.90;0.60;;;18.80;99.90;;;;;;5017636;28;20056;-80
2022/08/06 07:44:49;;;;;;;2.65;0.60;;;18.80;99.90;;;;;;5018024;28;20046;-78
2022/08/06 07:47:22;;;;;;;1.92;0.50;;;18.80;99.90;;;;;;5018592;28;20034;-77
2022/08/06 07:49:53;;;;;;;0.90;0.50;;;18.80;99.90;;;;;;5016580;28;20041;-79
2022/08/06 07:52:19;;;;;;;4.75;0.60;;;18.90;99.90;;;;;;5019374;28;20034;-79
2022/08/06 07:54:46;;;;;;;4.20;0.80;;;19.20;99.90;;;;;;5022489;28;20066;-80
2022/08/06 07:57:13;;;;;;;4.07;0.82;;;19.40;99.90;;;;;;5022163;28;20042;-79
2022/08/06 07:59:40;;;;;;;2.20;0.65;;;19.10;99.90;;;;;;5015706;28;20050;-78
2022/08/06 08:02:06;;;;;;;5.55;0.80;;;18.80;99.90;;;;;;5017713;28;20527;-78
2022/08/06 08:07:18;;;;;;;2.67;0.60;;;19.40;99.90;;;;;;5017337;28;20037;-78
2022/08/06 08:09:44;;;;;;;4.43;1.10;;;19.70;99.90;;;;;;5017346;28;20045;-80
2022/08/06 08:12:17;;;;;;;2.85;0.57;;;19.90;99.90;;;;;;5023720;28;20073;-78
2022/08/06 08:14:45;;;;;;;2.15;0.60;;;20.00;99.90;;;;;;5029558;28;20092;-77
2022/08/06 08:17:10;;;;;;;1.75;0.70;;;19.90;99.90;;;;;;5028654;28;20072;-78
2022/08/06 08:19:37;;;;;;;3.35;0.80;;;19.50;99.90;;;;;;5034502;28;20408;-78
2022/08/06 08:22:08;;;;;;;6.15;0.82;;;19.40;99.90;;;;;;5039044;28;20064;-77
2022/08/06 08:24:35;;;;;;;3.00;1.10;;;19.10;99.90;;;;;;5033275;28;20048;-82
2022/08/06 08:27:03;;;;;;;135.82;5.47;;;18.90;99.90;;;;;;5033550;28;20045;-74
2022/08/06 08:29:28;;;;;;;4.50;1.30;;;18.90;99.90;;;;;;5033965;28;20045;-78
2022/08/06 08:31:55;;;;;;;8.00;1.35;;;19.20;99.90;;;;;;5028840;28;20176;-77
2022/08/06 08:34:21;;;;;;;3.70;1.17;;;19.50;99.90;;;;;;5031234;28;20523;-77
2022/08/06 08:36:47;;;;;;;3.17;1.00;;;19.90;99.90;;;;;;5032207;28;20167;-77
2022/08/06 08:39:14;;;;;;;2.88;1.00;;;20.20;99.90;;;;;;5035362;28;20443;-79
2022/08/06 08:41:44;;;;;;;2.35;0.90;;;20.30;99.90;;;;;;5031910;28;20048;-77
2022/08/06 08:44:11;;;;;;;4.00;0.90;;;20.00;99.90;;;;;;5026421;28;20082;-77
2022/08/06 08:46:43;;;;;;;4.32;0.90;;;19.80;99.90;;;;;;5031336;28;20090;-77
2022/08/06 08:49:30;;;;;;;3.40;0.95;;;19.60;99.90;;;;;;5033781;28;20042;-77
2022/08/06 08:51:57;;;;;;;4.50;0.90;;;19.30;99.90;;;;;;5024973;28;20125;-77
2022/08/06 08:54:26;;;;;;;3.20;1.00;;;19.10;99.90;;;;;;5037642;28;20498;-77
2022/08/06 08:56:52;;;;;;;2.95;0.85;;;19.00;99.90;;;;;;5024270;28;20543;-79
2022/08/06 08:59:18;;;;;;;4.35;1.00;;;18.80;99.90;;;;;;5019951;28;20087;-77
2022/08/06 09:01:45;;;;;;;3.90;1.30;;;18.60;99.90;;;;;;5026628;28;20131;-77
2022/08/06 09:04:10;;;;;;;3.05;1.00;;;18.30;99.90;;;;;;5042285;28;20057;-78
2022/08/06 09:06:37;;;;;;;5.97;1.25;;;18.00;99.90;;;;;;5038733;28;20037;-78
2022/08/06 09:09:04;;;;;;;3.88;1.10;;;17.70;99.90;;;;;;5033530;28;20128;-78
2022/08/06 09:11:34;;;;;;;2.97;1.17;;;17.50;99.90;;;;;;5039601;28;20037;-77
2022/08/06 09:14:01;;;;;;;4.80;1.25;;;17.40;99.90;;;;;;5031492;28;20492;-78
2022/08/06 09:16:31;;;;;;;6.07;1.33;;;17.20;99.90;;;;;;5032066;28;20060;-77
2022/08/06 09:18:57;;;;;;;3.60;1.25;;;17.20;99.90;;;;;;5039882;28;20045;-77
2022/08/06 09:21:22;;;;;;;2.53;1.20;;;17.20;99.90;;;;;;5036635;28;20038;-78
2022/08/06 09:23:48;;;;;;;2.38;1.30;;;17.20;99.90;;;;;;5030729;28;20041;-77
2022/08/06 09:26:14;;;;;;;4.05;1.40;;;17.30;99.90;;;;;;5031847;28;20044;-77
2022/08/06 09:28:42;;;;;;;4.93;1.30;;;17.30;99.90;;;;;;5031160;28;20030;-77
2022/08/06 09:31:17;;;;;;;2.90;1.05;;;17.40;99.90;;;;;;5031216;28;20037;-78
2022/08/06 09:34:05;;;;;;;3.70;1.30;;;17.50;99.90;;;;;;5066437;28;20059;-75
2022/08/06 09:36:42;;;;;;;5.15;1.52;;;17.60;99.90;;;;;;5037880;28;20033;-78
2022/08/06 09:39:08;;;;;;;3.63;1.20;;;17.60;99.90;;;;;;5040077;28;20122;-77
2022/08/06 09:41:34;;;;;;;3.65;1.65;;;17.70;99.90;;;;;;5041310;28;20514;-78
2022/08/06 09:44:09;;;;;;;2.63;1.27;;;17.90;99.90;;;;;;5041469;28;20145;-77
2022/08/06 09:46:41;;;;;;;2.65;1.40;;;18.40;99.90;;;;;;5033998;28;20037;-79
2022/08/06 09:49:10;;;;;;;2.28;0.98;;;18.80;99.90;;;;;;5044871;28;20043;-76
2022/08/06 09:51:37;;;;;;;3.60;1.40;;;18.80;99.90;;;;;;5039345;28;20068;-78
2022/08/06 09:54:05;;;;;;;4.30;1.33;;;18.80;99.90;;;;;;5030715;28;20048;-76
2022/08/06 09:56:31;;;;;;;3.00;1.30;;;18.60;99.90;;;;;;5023271;28;20134;-77
2022/08/06 09:58:58;;;;;;;2.25;1.35;;;18.50;99.90;;;;;;5034277;28;20492;-76
2022/08/06 10:01:25;;;;;;;5.25;1.70;;;18.50;99.90;;;;;;5029412;28;20037;-77
2022/08/06 10:03:52;;;;;;;6.45;1.70;;;18.50;99.90;;;;;;5022915;28;20029;-78
2022/08/06 10:06:21;;;;;;;2.40;1.20;;;18.60;99.90;;;;;;5023783;28;20152;-77
2022/08/06 10:08:48;;;;;;;6.43;1.30;;;18.70;99.90;;;;;;5028731;28;20048;-77
2022/08/06 10:11:14;;;;;;;7.60;1.77;;;18.90;99.90;;;;;;5031025;28;20030;-76
2022/08/06 10:13:46;;;;;;;4.30;1.20;;;19.00;99.90;;;;;;5030541;28;20033;-77
2022/08/06 10:16:20;;;;;;;3.70;1.80;;;19.20;99.90;;;;;;5030324;28;20037;-78
2022/08/06 10:18:49;;;;;;;9.63;2.15;;;19.20;99.90;;;;;;5033255;28;20037;-77
2022/08/06 10:21:16;;;;;;;4.63;1.73;;;19.30;99.90;;;;;;5036583;28;20128;-78
2022/08/06 10:23:45;;;;;;;4.65;1.50;;;19.40;99.90;;;;;;5032583;28;20038;-77
2022/08/06 10:26:12;;;;;;;3.53;1.45;;;19.50;99.90;;;;;;5041806;28;20062;-76
2022/08/06 10:28:41;;;;;;;4.28;1.73;;;19.60;99.90;;;;;;5037550;28;20043;-76
2022/08/06 10:31:09;;;;;;;21.98;5.05;;;19.60;99.90;;;;;;5036983;28;20123;-78
2022/08/06 10:33:52;;;;;;;3.72;2.03;;;19.60;99.90;;;;;;5048968;28;20133;-79
2022/08/06 10:36:23;;;;;;;4.75;1.90;;;19.30;99.90;;;;;;5033444;28;20177;-77
2022/08/06 10:38:52;;;;;;;5.90;2.05;;;19.30;99.90;;;;;;5035657;28;20048;-78
2022/08/06 10:41:18;;;;;;;9.02;2.80;;;19.40;99.90;;;;;;5039044;28;20168;-77
2022/08/06 10:43:44;;;;;;;3.35;1.50;;;19.50;99.90;;;;;;5036270;28;20128;-76
2022/08/06 10:46:15;;;;;;;3.15;1.60;;;19.80;99.90;;;;;;5038406;28;20087;-77
2022/08/06 10:48:43;;;;;;;3.13;1.70;;;20.20;99.90;;;;;;5030717;28;20092;-78
2022/08/06 10:51:10;;;;;;;3.47;1.90;;;20.80;99.90;;;;;;5033152;28;20061;-77
2022/08/06 10:53:39;;;;;;;2.95;1.70;;;21.10;99.20;;;;;;5032452;28;20045;-76
2022/08/06 10:56:07;;;;;;;2.38;1.60;;;21.00;99.50;;;;;;5030058;28;20046;-77
2022/08/06 10:58:34;;;;;;;4.70;2.03;;;21.00;99.10;;;;;;5042859;28;20033;-77
2022/08/06 11:01:03;;;;;;;2.95;2.00;;;20.90;98.50;;;;;;5040771;28;20037;-76
2022/08/06 11:03:41;;;;;;;2.67;1.77;;;20.80;97.90;;;;;;5032088;28;20060;-76
2022/08/06 11:06:29;;;;;;;3.47;1.90;;;20.70;98.00;;;;;;5041599;28;20806;-76
2022/08/06 11:09:17;;;;;;;2.60;1.52;;;20.60;98.00;;;;;;5035464;28;20087;-77
2022/08/06 11:12:11;;;;;;;3.78;2.05;;;20.50;96.50;;;;;;5025336;28;20044;-76
2022/08/06 11:14:38;;;;;;;5.75;2.20;;;20.90;97.30;;;;;;5027578;28;20037;-77
2022/08/06 11:17:05;;;;;;;4.50;2.17;;;21.20;97.80;;;;;;5028591;28;20107;-76
2022/08/06 11:19:45;;;;;;;4.28;2.25;;;21.60;97.70;;;;;;5023046;28;20037;-77
2022/08/06 11:22:39;;;;;;;3.78;2.50;;;22.10;96.80;;;;;;5031554;28;20045;-77
2022/08/06 11:25:08;;;;;;;3.40;2.38;;;22.00;93.80;;;;;;5028947;28;20530;-77
2022/08/06 11:27:56;;;;;;;4.60;2.40;;;21.70;95.40;;;;;;5034388;28;20101;-75
2022/08/06 11:30:37;;;;;;;7.50;3.00;;;21.20;94.70;;;;;;5028302;28;20099;-76
2022/08/06 11:33:03;;;;;;;8.23;2.20;;;20.80;95.30;;;;;;5027386;28;20117;-77
2022/08/06 11:35:34;;;;;;;5.38;2.55;;;20.70;95.40;;;;;;5030056;28;20084;-76
2022/08/06 11:38:05;;;;;;;3.63;2.17;;;20.70;95.10;;;;;;5029816;28;20516;-78
2022/08/06 11:41:00;;;;;;;3.88;2.28;;;20.70;93.50;;;;;;5032888;28;20111;-77
2022/08/06 11:43:52;;;;;;;6.05;2.30;;;21.10;93.60;;;;;;5028255;28;20107;-76
2022/08/06 11:46:22;;;;;;;7.70;2.30;;;21.30;93.40;;;;;;5025667;28;20069;-76
2022/08/06 11:49:00;;;;;;;2.70;2.00;;;21.60;93.50;;;;;;5028854;28;20033;-75
2022/08/06 11:51:44;;;;;;;3.50;2.40;;;22.10;93.30;;;;;;5022277;28;20045;-76
2022/08/06 11:54:11;;;;;;;;;;;22.90;92.20;;;;;;5026594;28;20419;-75
2022/08/06 11:57:06;;;;;;;2.58;2.00;;;23.20;93.00;;;;;;5030148;28;19921;-76
2022/08/06 11:59:38;;;;;;;4.93;2.55;;;23.00;93.00;;;;;;5036657;28;20049;-79
2022/08/06 12:02:08;;;;;;;7.55;2.60;;;22.70;93.00;;;;;;5026512;28;20045;-79
2022/08/06 12:04:42;;;;;;;5.45;2.85;;;22.20;92.70;;;;;;5040763;28;20060;-77
2022/08/06 12:07:22;;;;;;;5.05;3.05;;;22.20;93.30;;;;;;5031403;28;20049;-75
2022/08/06 12:10:06;;;;;;;8.27;2.53;;;22.40;92.40;;;;;;5031592;28;20099;-77
2022/08/06 12:12:43;;;;;;;5.45;2.72;;;22.20;92.70;;;;;;5031531;28;20040;-78
2022/08/06 12:15:11;;;;;;;6.47;2.80;;;22.50;93.30;;;;;;5033386;28;20040;-75
2022/08/06 12:17:56;;;;;;;8.57;2.50;;;22.60;92.60;;;;;;5036090;28;20712;-77
2022/08/06 12:20:35;;;;;;;3.75;2.50;;;22.80;92.70;;;;;;5029285;28;20040;-75
2022/08/06 12:23:04;;;;;;;4.30;2.50;;;22.90;92.20;;;;;;5041775;28;20464;-76
2022/08/06 12:25:37;;;;;;;4.53;2.65;;;22.80;92.20;;;;;;5030067;28;20115;-78
2022/08/06 12:28:04;;;;;;;6.22;2.53;;;22.80;91.70;;;;;;5034685;28;20425;-77
2022/08/06 12:30:46;;;;;;;3.85;2.60;;;22.80;91.60;;;;;;5034779;28;20029;-77
2022/08/06 12:33:12;;;;;;;3.33;2.60;;;22.60;90.90;;;;;;5030120;28;20036;-77
2022/08/06 12:35:58;;;;;;;4.20;2.50;;;22.20;91.70;;;;;;5025014;28;20041;-75
2022/08/06 12:38:30;;;;;;;3.25;2.38;;;22.00;92.10;;;;;;5026800;28;20033;-75
2022/08/06 12:41:07;;;;;;;8.07;2.78;;;22.00;92.10;;;;;;5037550;28;20120;-79
2022/08/06 12:43:34;;;;;;;12.43;3.50;;;21.90;90.00;;;;;;5033450;28;20120;-77
2022/08/06 12:46:04;;;;;;;7.88;3.10;;;22.30;91.80;;;;;;5028958;28;20076;-78
2022/08/06 12:48:35;;;;;;;3.63;2.45;;;22.60;91.70;;;;;;5037728;28;20038;-76
2022/08/06 12:51:13;;;;;;;3.42;2.67;;;23.10;91.70;;;;;;5033351;28;20395;-77
2022/08/06 12:53:46;;;;;;;10.13;3.20;;;23.00;90.50;;;;;;5035802;28;20064;-77
2022/08/06 12:56:12;;;;;;;3.88;2.90;;;23.50;91.30;;;;;;5032895;28;20514;-76
2022/08/06 12:58:40;;;;;;;3.78;2.92;;;23.40;91.10;;;;;;5021697;28;20069;-77
2022/08/06 13:01:10;;;;;;;4.18;2.95;;;23.20;91.10;;;;;;5032459;28;20041;-76
2022/08/06 13:03:41;;;;;;;3.42;2.78;;;23.60;91.10;;;;;;5042314;28;20423;-77
2022/08/06 13:06:08;;;;;;;3.42;2.58;;;23.60;88.50;;;;;;5032671;28;20041;-76
2022/08/06 13:08:35;;;;;;;3.80;2.58;;;23.50;90.10;;;;;;5033167;28;20044;-77